| Date | Time | Temp. (oF) | Dew Point (oF) | Rel. Hum. (%) | Press. (in.) | Wind Dir. | Wind Speed (mph) | Hourly Rainfall (in.) |
|
|---|---|---|---|---|---|---|---|---|---|
| 1 | 03/06 | 00:00 | 28 | 14 | 56 | 30.46 | WSW | 2 | 0.00 |
| 2 | 03/05 | 23:00 | 29 | 14 | 55 | 30.43 | SSW | 4 | 0.00 |
| 3 | 03/05 | 22:00 | 31 | 16 | 54 | 30.39 | WSW | 12 | 0.00 |
| 4 | 03/05 | 21:00 | 32 | 16 | 52 | 30.34 | SW | 8 | 0.00 |
| 5 | 03/05 | 20:00 | 34 | 15 | 46 | 30.29 | WSW | 22 | 0.00 |
| 6 | 03/05 | 19:00 | 36 | 16 | 45 | 30.25 | NNE | 9 | 0.00 |
| 7 | 03/05 | 18:00 | 37 | 17 | 45 | 30.19 | WSW | 13 | 0.00 |
| 8 | 03/05 | 17:00 | 39 | 17 | 41 | 30.15 | WSW | 13 | 0.00 |
| 9 | 03/05 | 16:00 | 40 | 19 | 43 | 30.11 | NNE | 5 | 0.00 |
| 10 | 03/05 | 15:00 | 41 | 20 | 44 | 30.08 | W | 6 | 0.00 |
| 11 | 03/05 | 14:00 | 39 | 22 | 51 | 30.07 | SSW | 8 | 0.00 |
| 12 | 03/05 | 13:00 | 41 | 25 | 54 | 30.06 | SW | 17 | 0.00 |
| 13 | 03/05 | 12:00 | 39 | 24 | 56 | 30.06 | N | 4 | 0.00 |
| 14 | 03/05 | 11:00 | 38 | 24 | 58 | 30.06 | SSE | 5 | 0.00 |
| 15 | 03/05 | 10:00 | 36 | 26 | 69 | 30.05 | SSW | 7 | 0.00 |
| 16 | 03/05 | 09:00 | 33 | 28 | 83 | 30.04 | SW | 4 | 0.00 |
| 17 | 03/05 | 08:00 | 31 | 28 | 90 | 30.01 | S | 3 | 0.00 |
| 18 | 03/05 | 07:00 | 27 | 26 | 97 | 29.98 | SSE | 3 | 0.00 |
| 19 | 03/05 | 06:00 | 26 | 26 | 100 | 29.95 | SSW | 1 | 0.00 |
| 20 | 03/05 | 05:00 | 27 | 25 | 95 | 29.93 | SSE | 3 | 0.00 |
| 21 | 03/05 | 04:00 | 29 | 26 | 92 | 29.92 | S | 4 | 0.00 |
| 22 | 03/05 | 03:00 | 29 | 25 | 88 | 29.90 | SSE | 1 | 0.00 |
| 23 | 03/05 | 02:00 | 30 | 25 | 84 | 29.90 | SSW | 1 | 0.00 |
| 24 | 03/05 | 01:00 | 31 | 25 | 80 | 29.88 | SSW | 7 | 0.00 |